sensor_id;sensor_type;location;lat;lon;timestamp;temperature;humidity
8715;DHT22;4394;51.208;8.904;2022-10-16T00:00:35;14.90;99.90
8715;DHT22;4394;51.208;8.904;2022-10-16T00:03:24;14.90;99.90
8715;DHT22;4394;51.208;8.904;2022-10-16T00:06:16;14.90;99.90
8715;DHT22;4394;51.208;8.904;2022-10-16T00:09:06;14.90;99.90
8715;DHT22;4394;51.208;8.904;2022-10-16T00:11:54;14.90;99.90
8715;DHT22;4394;51.208;8.904;2022-10-16T00:14:42;14.90;99.90
8715;DHT22;4394;51.208;8.904;2022-10-16T00:17:30;14.90;99.90
8715;DHT22;4394;51.208;8.904;2022-10-16T00:20:18;14.90;99.90
8715;DHT22;4394;51.208;8.904;2022-10-16T00:23:06;14.90;99.90
8715;DHT22;4394;51.208;8.904;2022-10-16T00:25:56;14.80;99.90
8715;DHT22;4394;51.208;8.904;2022-10-16T00:28:45;14.80;99.90
8715;DHT22;4394;51.208;8.904;2022-10-16T00:31:33;14.90;99.90
8715;DHT22;4394;51.208;8.904;2022-10-16T00:34:21;14.80;99.90
8715;DHT22;4394;51.208;8.904;2022-10-16T00:37:09;14.80;99.90
8715;DHT22;4394;51.208;8.904;2022-10-16T00:39:57;14.90;99.90
8715;DHT22;4394;51.208;8.904;2022-10-16T00:42:46;14.80;99.90
8715;DHT22;4394;51.208;8.904;2022-10-16T00:45:34;14.80;99.90
8715;DHT22;4394;51.208;8.904;2022-10-16T00:48:22;14.80;99.90
8715;DHT22;4394;51.208;8.904;2022-10-16T00:51:10;14.80;99.90
8715;DHT22;4394;51.208;8.904;2022-10-16T00:53:58;14.80;99.90
8715;DHT22;4394;51.208;8.904;2022-10-16T00:56:46;14.80;99.90
8715;DHT22;4394;51.208;8.904;2022-10-16T00:59:37;14.80;99.90
8715;DHT22;4394;51.208;8.904;2022-10-16T01:02:25;14.80;99.90
8715;DHT22;4394;51.208;8.904;2022-10-16T01:05:14;14.80;99.90
8715;DHT22;4394;51.208;8.904;2022-10-16T01:08:04;14.80;99.90
8715;DHT22;4394;51.208;8.904;2022-10-16T01:10:57;14.70;99.90
8715;DHT22;4394;51.208;8.904;2022-10-16T01:13:46;14.70;99.90
8715;DHT22;4394;51.208;8.904;2022-10-16T01:16:38;14.60;99.90
8715;DHT22;4394;51.208;8.904;2022-10-16T01:19:33;14.70;99.90
8715;DHT22;4394;51.208;8.904;2022-10-16T01:22:25;14.70;99.90
8715;DHT22;4394;51.208;8.904;2022-10-16T01:25:19;14.70;99.90
8715;DHT22;4394;51.208;8.904;2022-10-16T01:28:09;14.80;99.90
8715;DHT22;4394;51.208;8.904;2022-10-16T01:30:58;14.80;99.90
8715;DHT22;4394;51.208;8.904;2022-10-16T01:33:48;14.80;99.90
8715;DHT22;4394;51.208;8.904;2022-10-16T01:36:40;14.80;99.90
8715;DHT22;4394;51.208;8.904;2022-10-16T01:39:29;14.90;99.90
8715;DHT22;4394;51.208;8.904;2022-10-16T01:42:19;14.90;99.90
8715;DHT22;4394;51.208;8.904;2022-10-16T01:45:10;14.90;99.90
8715;DHT22;4394;51.208;8.904;2022-10-16T01:48:00;14.90;99.90
8715;DHT22;4394;51.208;8.904;2022-10-16T01:50:52;14.90;99.90
8715;DHT22;4394;51.208;8.904;2022-10-16T01:53:41;14.90;99.90
8715;DHT22;4394;51.208;8.904;2022-10-16T01:56:30;14.90;99.90
8715;DHT22;4394;51.208;8.904;2022-10-16T01:59:19;14.90;99.90
8715;DHT22;4394;51.208;8.904;2022-10-16T02:02:09;14.90;99.90
8715;DHT22;4394;51.208;8.904;2022-10-16T02:04:58;14.90;99.90
8715;DHT22;4394;51.208;8.904;2022-10-16T02:07:47;14.90;99.90
8715;DHT22;4394;51.208;8.904;2022-10-16T02:10:35;14.90;99.90
8715;DHT22;4394;51.208;8.904;2022-10-16T02:13:26;14.90;99.90
8715;DHT22;4394;51.208;8.904;2022-10-16T02:16:14;14.90;99.90
8715;DHT22;4394;51.208;8.904;2022-10-16T02:19:04;14.90;99.90
8715;DHT22;4394;51.208;8.904;2022-10-16T02:21:53;14.90;99.90
8715;DHT22;4394;51.208;8.904;2022-10-16T02:24:43;14.90;99.90
8715;DHT22;4394;51.208;8.904;2022-10-16T02:27:34;14.90;99.90
8715;DHT22;4394;51.208;8.904;2022-10-16T02:30:28;14.90;99.90
8715;DHT22;4394;51.208;8.904;2022-10-16T02:33:17;14.80;99.90
8715;DHT22;4394;51.208;8.904;2022-10-16T02:36:07;14.90;99.90
8715;DHT22;4394;51.208;8.904;2022-10-16T02:38:55;14.80;99.90
8715;DHT22;4394;51.208;8.904;2022-10-16T02:41:43;14.80;99.90
8715;DHT22;4394;51.208;8.904;2022-10-16T02:44:31;14.80;99.90
8715;DHT22;4394;51.208;8.904;2022-10-16T02:47:19;14.80;99.90
8715;DHT22;4394;51.208;8.904;2022-10-16T02:50:07;14.80;99.90
8715;DHT22;4394;51.208;8.904;2022-10-16T02:52:56;14.90;99.90
8715;DHT22;4394;51.208;8.904;2022-10-16T02:55:44;14.80;99.90
8715;DHT22;4394;51.208;8.904;2022-10-16T02:58:32;14.80;99.90
8715;DHT22;4394;51.208;8.904;2022-10-16T03:01:20;14.90;99.90
8715;DHT22;4394;51.208;8.904;2022-10-16T03:04:08;14.80;99.90
8715;DHT22;4394;51.208;8.904;2022-10-16T03:06:56;14.80;99.90
8715;DHT22;4394;51.208;8.904;2022-10-16T03:09:45;14.80;99.90
8715;DHT22;4394;51.208;8.904;2022-10-16T03:12:33;14.80;99.90
8715;DHT22;4394;51.208;8.904;2022-10-16T03:15:21;14.70;99.90
8715;DHT22;4394;51.208;8.904;2022-10-16T03:18:09;14.70;99.90
8715;DHT22;4394;51.208;8.904;2022-10-16T03:20:57;14.70;99.90
8715;DHT22;4394;51.208;8.904;2022-10-16T03:23:44;14.70;99.90
8715;DHT22;4394;51.208;8.904;2022-10-16T03:26:34;14.70;99.90
8715;DHT22;4394;51.208;8.904;2022-10-16T03:29:22;14.70;99.90
8715;DHT22;4394;51.208;8.904;2022-10-16T03:32:12;14.70;99.90
8715;DHT22;4394;51.208;8.904;2022-10-16T03:35:00;14.70;99.90
8715;DHT22;4394;51.208;8.904;2022-10-16T03:37:48;14.70;99.90
8715;DHT22;4394;51.208;8.904;2022-10-16T03:40:36;14.70;99.90
8715;DHT22;4394;51.208;8.904;2022-10-16T03:43:25;14.70;99.90
8715;DHT22;4394;51.208;8.904;2022-10-16T03:46:13;14.70;99.90
8715;DHT22;4394;51.208;8.904;2022-10-16T03:49:01;14.70;99.90
8715;DHT22;4394;51.208;8.904;2022-10-16T03:51:54;14.70;99.90
8715;DHT22;4394;51.208;8.904;2022-10-16T03:54:42;14.70;99.90
8715;DHT22;4394;51.208;8.904;2022-10-16T03:57:30;14.70;99.90
8715;DHT22;4394;51.208;8.904;2022-10-16T04:00:19;14.70;99.90
8715;DHT22;4394;51.208;8.904;2022-10-16T04:03:07;14.70;99.90
8715;DHT22;4394;51.208;8.904;2022-10-16T04:05:55;14.70;99.90
8715;DHT22;4394;51.208;8.904;2022-10-16T04:08:43;14.70;99.90
8715;DHT22;4394;51.208;8.904;2022-10-16T04:11:31;14.70;99.90
8715;DHT22;4394;51.208;8.904;2022-10-16T04:14:19;14.70;99.90
8715;DHT22;4394;51.208;8.904;2022-10-16T04:17:08;14.60;99.90
8715;DHT22;4394;51.208;8.904;2022-10-16T04:19:56;14.70;99.90
8715;DHT22;4394;51.208;8.904;2022-10-16T04:22:44;14.70;99.90
8715;DHT22;4394;51.208;8.904;2022-10-16T04:25:32;14.70;99.90
8715;DHT22;4394;51.208;8.904;2022-10-16T04:28:20;14.70;99.90
8715;DHT22;4394;51.208;8.904;2022-10-16T04:31:08;14.60;99.90
8715;DHT22;4394;51.208;8.904;2022-10-16T04:33:57;14.70;99.90
8715;DHT22;4394;51.208;8.904;2022-10-16T04:36:46;14.70;99.90
8715;DHT22;4394;51.208;8.904;2022-10-16T04:39:34;14.70;99.90
8715;DHT22;4394;51.208;8.904;2022-10-16T04:42:22;14.70;99.90
8715;DHT22;4394;51.208;8.904;2022-10-16T04:45:10;14.70;99.90
8715;DHT22;4394;51.208;8.904;2022-10-16T04:48:02;14.70;99.90
8715;DHT22;4394;51.208;8.904;2022-10-16T04:50:52;14.70;99.90
8715;DHT22;4394;51.208;8.904;2022-10-16T04:53:40;14.60;99.90
8715;DHT22;4394;51.208;8.904;2022-10-16T04:56:28;14.70;99.90
8715;DHT22;4394;51.208;8.904;2022-10-16T04:59:17;14.70;99.90
8715;DHT22;4394;51.208;8.904;2022-10-16T05:02:05;14.70;99.90
8715;DHT22;4394;51.208;8.904;2022-10-16T05:04:53;14.70;99.90
8715;DHT22;4394;51.208;8.904;2022-10-16T05:07:42;14.60;99.90
8715;DHT22;4394;51.208;8.904;2022-10-16T05:10:30;14.60;99.90
8715;DHT22;4394;51.208;8.904;2022-10-16T05:13:18;14.60;99.90
8715;DHT22;4394;51.208;8.904;2022-10-16T05:16:06;14.60;99.90
8715;DHT22;4394;51.208;8.904;2022-10-16T05:18:54;14.60;99.90
8715;DHT22;4394;51.208;8.904;2022-10-16T05:22:02;14.60;99.90
8715;DHT22;4394;51.208;8.904;2022-10-16T05:24:51;14.60;99.90
8715;DHT22;4394;51.208;8.904;2022-10-16T05:27:39;14.60;99.90
8715;DHT22;4394;51.208;8.904;2022-10-16T05:30:27;14.60;99.90
8715;DHT22;4394;51.208;8.904;2022-10-16T05:33:14;14.60;99.90
8715;DHT22;4394;51.208;8.904;2022-10-16T05:36:03;14.60;99.90
8715;DHT22;4394;51.208;8.904;2022-10-16T05:38:51;14.60;99.90
8715;DHT22;4394;51.208;8.904;2022-10-16T05:41:40;14.60;99.90
8715;DHT22;4394;51.208;8.904;2022-10-16T05:44:28;14.60;99.90
8715;DHT22;4394;51.208;8.904;2022-10-16T05:47:16;14.60;99.90
8715;DHT22;4394;51.208;8.904;2022-10-16T05:50:04;14.60;99.90
8715;DHT22;4394;51.208;8.904;2022-10-16T05:52:52;14.60;99.90
8715;DHT22;4394;51.208;8.904;2022-10-16T05:55:40;14.50;99.90
8715;DHT22;4394;51.208;8.904;2022-10-16T05:58:30;14.60;99.90
8715;DHT22;4394;51.208;8.904;2022-10-16T06:01:18;14.60;99.90
8715;DHT22;4394;51.208;8.904;2022-10-16T06:04:07;14.60;99.90
8715;DHT22;4394;51.208;8.904;2022-10-16T06:07:00;14.60;99.90
8715;DHT22;4394;51.208;8.904;2022-10-16T06:09:48;14.60;99.90
8715;DHT22;4394;51.208;8.904;2022-10-16T06:12:36;14.50;99.90
8715;DHT22;4394;51.208;8.904;2022-10-16T06:15:25;14.50;99.90
8715;DHT22;4394;51.208;8.904;2022-10-16T06:18:13;14.50;99.90
8715;DHT22;4394;51.208;8.904;2022-10-16T06:21:06;14.50;99.90
8715;DHT22;4394;51.208;8.904;2022-10-16T06:23:55;14.50;99.90
8715;DHT22;4394;51.208;8.904;2022-10-16T06:26:43;14.50;99.90
8715;DHT22;4394;51.208;8.904;2022-10-16T06:29:31;14.50;99.90
8715;DHT22;4394;51.208;8.904;2022-10-16T06:32:20;14.50;99.90
8715;DHT22;4394;51.208;8.904;2022-10-16T06:35:08;14.50;99.90
8715;DHT22;4394;51.208;8.904;2022-10-16T06:37:56;14.50;99.90
8715;DHT22;4394;51.208;8.904;2022-10-16T06:40:44;14.50;99.90
8715;DHT22;4394;51.208;8.904;2022-10-16T06:43:32;14.50;99.90
8715;DHT22;4394;51.208;8.904;2022-10-16T06:46:22;14.50;99.90
8715;DHT22;4394;51.208;8.904;2022-10-16T06:49:12;14.50;99.90
8715;DHT22;4394;51.208;8.904;2022-10-16T06:52:02;14.50;99.90
8715;DHT22;4394;51.208;8.904;2022-10-16T06:54:51;14.50;99.90
8715;DHT22;4394;51.208;8.904;2022-10-16T06:57:39;14.50;99.90
8715;DHT22;4394;51.208;8.904;2022-10-16T07:00:27;14.50;99.90
8715;DHT22;4394;51.208;8.904;2022-10-16T07:03:15;14.60;99.90
8715;DHT22;4394;51.208;8.904;2022-10-16T07:06:05;14.50;99.90
8715;DHT22;4394;51.208;8.904;2022-10-16T07:08:53;14.60;99.90
8715;DHT22;4394;51.208;8.904;2022-10-16T07:11:41;14.60;99.90
8715;DHT22;4394;51.208;8.904;2022-10-16T07:14:29;14.60;99.90
8715;DHT22;4394;51.208;8.904;2022-10-16T07:17:17;14.60;99.90
8715;DHT22;4394;51.208;8.904;2022-10-16T07:20:05;14.70;99.90
8715;DHT22;4394;51.208;8.904;2022-10-16T07:22:55;14.70;99.90
8715;DHT22;4394;51.208;8.904;2022-10-16T07:25:43;14.70;99.90
8715;DHT22;4394;51.208;8.904;2022-10-16T07:28:31;14.70;99.90
8715;DHT22;4394;51.208;8.904;2022-10-16T07:31:19;14.60;99.90
8715;DHT22;4394;51.208;8.904;2022-10-16T07:34:07;14.60;99.90
8715;DHT22;4394;51.208;8.904;2022-10-16T07:36:55;14.70;99.90
8715;DHT22;4394;51.208;8.904;2022-10-16T07:39:44;14.70;99.90
8715;DHT22;4394;51.208;8.904;2022-10-16T07:42:32;14.70;99.90
8715;DHT22;4394;51.208;8.904;2022-10-16T07:45:20;14.70;99.90
8715;DHT22;4394;51.208;8.904;2022-10-16T07:48:08;14.70;99.90
8715;DHT22;4394;51.208;8.904;2022-10-16T07:50:56;14.70;99.90
8715;DHT22;4394;51.208;8.904;2022-10-16T07:53:44;14.70;99.90
8715;DHT22;4394;51.208;8.904;2022-10-16T07:56:34;14.80;99.90
8715;DHT22;4394;51.208;8.904;2022-10-16T07:59:25;14.80;99.90
8715;DHT22;4394;51.208;8.904;2022-10-16T08:02:13;14.80;99.90
8715;DHT22;4394;51.208;8.904;2022-10-16T08:05:01;14.90;99.90
8715;DHT22;4394;51.208;8.904;2022-10-16T08:07:49;14.90;99.90
8715;DHT22;4394;51.208;8.904;2022-10-16T08:10:37;14.90;99.90
8715;DHT22;4394;51.208;8.904;2022-10-16T08:13:26;15.00;99.90
8715;DHT22;4394;51.208;8.904;2022-10-16T08:16:14;15.00;99.90
8715;DHT22;4394;51.208;8.904;2022-10-16T08:19:03;14.90;99.90
8715;DHT22;4394;51.208;8.904;2022-10-16T08:21:51;15.00;99.90
8715;DHT22;4394;51.208;8.904;2022-10-16T08:24:39;15.00;99.90
8715;DHT22;4394;51.208;8.904;2022-10-16T08:27:30;15.00;99.90
8715;DHT22;4394;51.208;8.904;2022-10-16T08:30:20;15.10;99.90
8715;DHT22;4394;51.208;8.904;2022-10-16T08:33:08;15.20;99.90
8715;DHT22;4394;51.208;8.904;2022-10-16T08:35:56;15.20;99.90
8715;DHT22;4394;51.208;8.904;2022-10-16T08:38:46;15.30;99.90
8715;DHT22;4394;51.208;8.904;2022-10-16T08:48:03;15.50;99.90
8715;DHT22;4394;51.208;8.904;2022-10-16T08:50:53;15.50;99.90
8715;DHT22;4394;51.208;8.904;2022-10-16T08:53:43;15.60;99.90
8715;DHT22;4394;51.208;8.904;2022-10-16T08:56:32;15.60;99.90
8715;DHT22;4394;51.208;8.904;2022-10-16T08:59:20;15.60;99.90
8715;DHT22;4394;51.208;8.904;2022-10-16T09:02:16;15.70;99.90
8715;DHT22;4394;51.208;8.904;2022-10-16T09:05:15;15.80;99.90
8715;DHT22;4394;51.208;8.904;2022-10-16T09:08:07;15.80;99.90
8715;DHT22;4394;51.208;8.904;2022-10-16T09:10:59;15.80;99.90
8715;DHT22;4394;51.208;8.904;2022-10-16T09:13:53;15.80;99.90
8715;DHT22;4394;51.208;8.904;2022-10-16T09:16:44;15.80;99.90
8715;DHT22;4394;51.208;8.904;2022-10-16T09:19:36;15.80;99.90
8715;DHT22;4394;51.208;8.904;2022-10-16T09:22:27;15.90;99.90
8715;DHT22;4394;51.208;8.904;2022-10-16T09:25:16;16.00;99.90
8715;DHT22;4394;51.208;8.904;2022-10-16T09:28:05;16.10;99.90
8715;DHT22;4394;51.208;8.904;2022-10-16T09:30:53;16.20;99.90
8715;DHT22;4394;51.208;8.904;2022-10-16T09:33:41;16.30;99.90
8715;DHT22;4394;51.208;8.904;2022-10-16T09:36:29;16.30;99.90
8715;DHT22;4394;51.208;8.904;2022-10-16T09:39:23;16.30;99.90
8715;DHT22;4394;51.208;8.904;2022-10-16T09:42:11;16.30;99.90
8715;DHT22;4394;51.208;8.904;2022-10-16T09:45:01;16.40;99.90
8715;DHT22;4394;51.208;8.904;2022-10-16T09:47:50;16.30;99.90
8715;DHT22;4394;51.208;8.904;2022-10-16T09:50:43;16.40;99.90
8715;DHT22;4394;51.208;8.904;2022-10-16T09:53:38;16.40;99.90
8715;DHT22;4394;51.208;8.904;2022-10-16T09:56:28;16.50;99.90
8715;DHT22;4394;51.208;8.904;2022-10-16T09:59:17;16.60;99.90
8715;DHT22;4394;51.208;8.904;2022-10-16T10:02:10;16.60;99.90
8715;DHT22;4394;51.208;8.904;2022-10-16T10:04:58;16.70;99.90
8715;DHT22;4394;51.208;8.904;2022-10-16T10:07:52;16.70;99.90
8715;DHT22;4394;51.208;8.904;2022-10-16T10:10:42;16.70;99.90
8715;DHT22;4394;51.208;8.904;2022-10-16T10:13:31;16.80;99.90
8715;DHT22;4394;51.208;8.904;2022-10-16T10:16:23;16.80;99.90
8715;DHT22;4394;51.208;8.904;2022-10-16T10:19:13;16.80;99.90
8715;DHT22;4394;51.208;8.904;2022-10-16T10:22:02;16.70;99.90
8715;DHT22;4394;51.208;8.904;2022-10-16T10:25:07;16.60;99.90
8715;DHT22;4394;51.208;8.904;2022-10-16T10:28:03;16.60;99.90
8715;DHT22;4394;51.208;8.904;2022-10-16T10:30:57;16.50;99.90
8715;DHT22;4394;51.208;8.904;2022-10-16T10:33:49;16.60;99.90
8715;DHT22;4394;51.208;8.904;2022-10-16T10:36:40;16.70;99.90
8715;DHT22;4394;51.208;8.904;2022-10-16T10:39:30;16.80;99.90
8715;DHT22;4394;51.208;8.904;2022-10-16T10:42:21;16.70;99.90
8715;DHT22;4394;51.208;8.904;2022-10-16T10:45:17;16.70;99.90
8715;DHT22;4394;51.208;8.904;2022-10-16T10:48:12;16.60;99.90
8715;DHT22;4394;51.208;8.904;2022-10-16T10:51:04;16.60;99.90
8715;DHT22;4394;51.208;8.904;2022-10-16T10:53:55;16.60;99.90
8715;DHT22;4394;51.208;8.904;2022-10-16T10:56:47;16.70;99.90
8715;DHT22;4394;51.208;8.904;2022-10-16T11:02:44;16.90;99.90
8715;DHT22;4394;51.208;8.904;2022-10-16T11:05:39;17.00;99.90
8715;DHT22;4394;51.208;8.904;2022-10-16T11:08:29;17.10;99.90
8715;DHT22;4394;51.208;8.904;2022-10-16T11:11:20;17.30;99.90
8715;DHT22;4394;51.208;8.904;2022-10-16T11:14:13;17.40;99.90
8715;DHT22;4394;51.208;8.904;2022-10-16T11:17:04;17.50;99.90
8715;DHT22;4394;51.208;8.904;2022-10-16T11:19:56;17.70;99.90
8715;DHT22;4394;51.208;8.904;2022-10-16T11:22:48;17.90;99.90
8715;DHT22;4394;51.208;8.904;2022-10-16T11:25:37;18.00;99.90
8715;DHT22;4394;51.208;8.904;2022-10-16T11:28:27;18.20;99.90
8715;DHT22;4394;51.208;8.904;2022-10-16T11:31:19;18.30;99.90
8715;DHT22;4394;51.208;8.904;2022-10-16T11:34:09;18.50;99.90
8715;DHT22;4394;51.208;8.904;2022-10-16T11:37:05;18.70;99.90
8715;DHT22;4394;51.208;8.904;2022-10-16T11:39:58;18.90;99.90
8715;DHT22;4394;51.208;8.904;2022-10-16T11:42:51;19.00;99.90
8715;DHT22;4394;51.208;8.904;2022-10-16T11:45:42;19.00;99.90
8715;DHT22;4394;51.208;8.904;2022-10-16T11:48:32;19.00;99.90
8715;DHT22;4394;51.208;8.904;2022-10-16T11:51:25;19.10;99.90
8715;DHT22;4394;51.208;8.904;2022-10-16T11:54:17;19.20;99.90
8715;DHT22;4394;51.208;8.904;2022-10-16T11:57:11;19.20;99.90
8715;DHT22;4394;51.208;8.904;2022-10-16T12:00:00;19.30;99.90
8715;DHT22;4394;51.208;8.904;2022-10-16T12:02:53;19.30;99.90
8715;DHT22;4394;51.208;8.904;2022-10-16T12:05:49;19.30;99.90
8715;DHT22;4394;51.208;8.904;2022-10-16T12:08:40;19.40;99.90
8715;DHT22;4394;51.208;8.904;2022-10-16T12:11:33;19.40;99.90
8715;DHT22;4394;51.208;8.904;2022-10-16T12:14:34;19.40;99.90
8715;DHT22;4394;51.208;8.904;2022-10-16T12:17:42;19.40;99.90
8715;DHT22;4394;51.208;8.904;2022-10-16T12:20:31;19.30;99.90
8715;DHT22;4394;51.208;8.904;2022-10-16T12:23:20;19.30;99.90
8715;DHT22;4394;51.208;8.904;2022-10-16T12:26:09;19.20;99.90
8715;DHT22;4394;51.208;8.904;2022-10-16T12:29:09;19.40;99.90
8715;DHT22;4394;51.208;8.904;2022-10-16T12:32:01;19.20;99.90
8715;DHT22;4394;51.208;8.904;2022-10-16T12:34:49;19.10;99.90
8715;DHT22;4394;51.208;8.904;2022-10-16T12:37:37;19.10;99.90
8715;DHT22;4394;51.208;8.904;2022-10-16T12:40:26;18.90;99.90
8715;DHT22;4394;51.208;8.904;2022-10-16T12:43:35;18.80;99.90
8715;DHT22;4394;51.208;8.904;2022-10-16T12:46:33;18.80;99.90
8715;DHT22;4394;51.208;8.904;2022-10-16T12:49:29;18.80;99.90
8715;DHT22;4394;51.208;8.904;2022-10-16T12:52:25;18.90;99.90
8715;DHT22;4394;51.208;8.904;2022-10-16T12:55:15;19.00;99.90
8715;DHT22;4394;51.208;8.904;2022-10-16T12:58:06;19.10;99.90
8715;DHT22;4394;51.208;8.904;2022-10-16T13:00:57;19.20;99.90
8715;DHT22;4394;51.208;8.904;2022-10-16T13:03:52;19.30;99.90
8715;DHT22;4394;51.208;8.904;2022-10-16T13:06:47;19.40;99.90
8715;DHT22;4394;51.208;8.904;2022-10-16T13:09:41;19.30;99.90
8715;DHT22;4394;51.208;8.904;2022-10-16T13:15:47;19.50;99.90
8715;DHT22;4394;51.208;8.904;2022-10-16T13:18:40;19.60;99.90
8715;DHT22;4394;51.208;8.904;2022-10-16T13:21:33;19.80;99.90
8715;DHT22;4394;51.208;8.904;2022-10-16T13:24:25;19.90;99.90
8715;DHT22;4394;51.208;8.904;2022-10-16T13:27:18;20.00;99.90
8715;DHT22;4394;51.208;8.904;2022-10-16T13:30:12;20.00;99.90
8715;DHT22;4394;51.208;8.904;2022-10-16T13:33:02;19.90;99.90
8715;DHT22;4394;51.208;8.904;2022-10-16T13:35:51;19.80;99.90
8715;DHT22;4394;51.208;8.904;2022-10-16T13:38:39;19.70;99.90
8715;DHT22;4394;51.208;8.904;2022-10-16T13:41:29;19.70;99.90
8715;DHT22;4394;51.208;8.904;2022-10-16T13:44:17;19.70;99.90
8715;DHT22;4394;51.208;8.904;2022-10-16T13:47:10;19.70;99.90
8715;DHT22;4394;51.208;8.904;2022-10-16T13:50:03;19.80;99.90
8715;DHT22;4394;51.208;8.904;2022-10-16T13:52:52;19.90;99.90
8715;DHT22;4394;51.208;8.904;2022-10-16T13:55:50;20.10;99.90
8715;DHT22;4394;51.208;8.904;2022-10-16T13:58:39;20.20;99.90
8715;DHT22;4394;51.208;8.904;2022-10-16T14:01:28;20.30;99.90
8715;DHT22;4394;51.208;8.904;2022-10-16T14:04:18;20.40;99.90
8715;DHT22;4394;51.208;8.904;2022-10-16T14:07:11;20.50;99.90
8715;DHT22;4394;51.208;8.904;2022-10-16T14:10:07;20.60;99.90
8715;DHT22;4394;51.208;8.904;2022-10-16T14:13:06;20.80;99.90
8715;DHT22;4394;51.208;8.904;2022-10-16T14:15:55;20.90;99.90
8715;DHT22;4394;51.208;8.904;2022-10-16T14:18:45;20.90;99.90
8715;DHT22;4394;51.208;8.904;2022-10-16T14:21:34;21.00;99.90
8715;DHT22;4394;51.208;8.904;2022-10-16T14:24:26;21.00;99.90
8715;DHT22;4394;51.208;8.904;2022-10-16T14:27:20;20.90;99.90
8715;DHT22;4394;51.208;8.904;2022-10-16T14:30:15;20.90;99.90
8715;DHT22;4394;51.208;8.904;2022-10-16T14:33:05;20.90;99.90
8715;DHT22;4394;51.208;8.904;2022-10-16T14:36:01;20.90;99.90
8715;DHT22;4394;51.208;8.904;2022-10-16T14:38:53;20.90;99.90
8715;DHT22;4394;51.208;8.904;2022-10-16T14:41:43;21.00;99.90
8715;DHT22;4394;51.208;8.904;2022-10-16T14:44:32;21.00;99.90
8715;DHT22;4394;51.208;8.904;2022-10-16T14:47:21;21.00;99.90
8715;DHT22;4394;51.208;8.904;2022-10-16T14:50:13;21.00;99.90
8715;DHT22;4394;51.208;8.904;2022-10-16T14:53:01;20.90;99.90
8715;DHT22;4394;51.208;8.904;2022-10-16T14:55:49;20.80;99.90
8715;DHT22;4394;51.208;8.904;2022-10-16T14:58:37;20.80;99.90
8715;DHT22;4394;51.208;8.904;2022-10-16T15:01:25;20.70;99.90
8715;DHT22;4394;51.208;8.904;2022-10-16T15:04:13;20.70;99.90
8715;DHT22;4394;51.208;8.904;2022-10-16T15:07:03;20.60;99.90
8715;DHT22;4394;51.208;8.904;2022-10-16T15:09:51;20.50;99.90
8715;DHT22;4394;51.208;8.904;2022-10-16T15:12:39;20.40;99.90
8715;DHT22;4394;51.208;8.904;2022-10-16T15:15:32;20.30;99.90
8715;DHT22;4394;51.208;8.904;2022-10-16T15:18:21;20.30;99.90
8715;DHT22;4394;51.208;8.904;2022-10-16T15:21:08;20.20;99.90
8715;DHT22;4394;51.208;8.904;2022-10-16T15:24:01;20.10;99.90
8715;DHT22;4394;51.208;8.904;2022-10-16T15:26:49;20.10;99.90
8715;DHT22;4394;51.208;8.904;2022-10-16T15:29:37;20.00;99.90
8715;DHT22;4394;51.208;8.904;2022-10-16T15:32:25;19.90;99.90
8715;DHT22;4394;51.208;8.904;2022-10-16T15:35:14;19.80;99.90
8715;DHT22;4394;51.208;8.904;2022-10-16T15:38:02;19.80;99.90
8715;DHT22;4394;51.208;8.904;2022-10-16T15:40:51;19.80;99.90
8715;DHT22;4394;51.208;8.904;2022-10-16T15:43:39;19.80;99.90
8715;DHT22;4394;51.208;8.904;2022-10-16T15:46:27;19.80;99.90
8715;DHT22;4394;51.208;8.904;2022-10-16T15:49:17;19.70;99.90
8715;DHT22;4394;51.208;8.904;2022-10-16T15:52:05;19.60;99.90
8715;DHT22;4394;51.208;8.904;2022-10-16T15:54:53;19.50;99.90
8715;DHT22;4394;51.208;8.904;2022-10-16T15:57:42;19.50;99.90
8715;DHT22;4394;51.208;8.904;2022-10-16T16:00:30;19.40;99.90
8715;DHT22;4394;51.208;8.904;2022-10-16T16:03:18;19.40;99.90
8715;DHT22;4394;51.208;8.904;2022-10-16T16:06:06;19.40;99.90
8715;DHT22;4394;51.208;8.904;2022-10-16T16:08:54;19.30;99.90
8715;DHT22;4394;51.208;8.904;2022-10-16T16:11:42;19.20;99.90
8715;DHT22;4394;51.208;8.904;2022-10-16T16:14:31;19.20;99.90
8715;DHT22;4394;51.208;8.904;2022-10-16T16:17:19;19.10;99.90
8715;DHT22;4394;51.208;8.904;2022-10-16T16:20:08;19.00;99.90
8715;DHT22;4394;51.208;8.904;2022-10-16T16:22:56;18.90;99.90
8715;DHT22;4394;51.208;8.904;2022-10-16T16:25:44;18.90;99.90
8715;DHT22;4394;51.208;8.904;2022-10-16T16:28:32;18.80;99.90
8715;DHT22;4394;51.208;8.904;2022-10-16T16:31:21;18.80;99.90
8715;DHT22;4394;51.208;8.904;2022-10-16T16:34:11;18.60;99.90
8715;DHT22;4394;51.208;8.904;2022-10-16T16:36:59;18.70;99.90
8715;DHT22;4394;51.208;8.904;2022-10-16T16:39:47;18.60;99.90
8715;DHT22;4394;51.208;8.904;2022-10-16T16:42:35;18.60;99.90
8715;DHT22;4394;51.208;8.904;2022-10-16T16:45:23;18.50;99.90
8715;DHT22;4394;51.208;8.904;2022-10-16T16:48:18;18.50;99.90
8715;DHT22;4394;51.208;8.904;2022-10-16T16:51:06;18.40;99.90
8715;DHT22;4394;51.208;8.904;2022-10-16T16:53:54;18.50;99.90
8715;DHT22;4394;51.208;8.904;2022-10-16T16:56:42;18.50;99.90
8715;DHT22;4394;51.208;8.904;2022-10-16T16:59:31;18.40;99.90
8715;DHT22;4394;51.208;8.904;2022-10-16T17:02:19;18.40;99.90
8715;DHT22;4394;51.208;8.904;2022-10-16T17:05:08;18.30;99.90
8715;DHT22;4394;51.208;8.904;2022-10-16T17:07:56;18.30;99.90
8715;DHT22;4394;51.208;8.904;2022-10-16T17:10:44;18.40;99.90
8715;DHT22;4394;51.208;8.904;2022-10-16T17:13:35;18.40;99.90
8715;DHT22;4394;51.208;8.904;2022-10-16T17:16:24;18.30;99.90
8715;DHT22;4394;51.208;8.904;2022-10-16T17:19:14;18.20;99.90
8715;DHT22;4394;51.208;8.904;2022-10-16T17:22:03;18.20;99.90
8715;DHT22;4394;51.208;8.904;2022-10-16T17:24:51;18.20;99.90
8715;DHT22;4394;51.208;8.904;2022-10-16T17:27:40;18.20;99.90
8715;DHT22;4394;51.208;8.904;2022-10-16T17:30:28;18.10;99.90
8715;DHT22;4394;51.208;8.904;2022-10-16T17:33:16;18.10;99.90
8715;DHT22;4394;51.208;8.904;2022-10-16T17:36:04;18.10;99.90
8715;DHT22;4394;51.208;8.904;2022-10-16T17:38:54;18.10;99.90
8715;DHT22;4394;51.208;8.904;2022-10-16T17:41:42;18.10;99.90
8715;DHT22;4394;51.208;8.904;2022-10-16T17:44:30;18.00;99.90
8715;DHT22;4394;51.208;8.904;2022-10-16T17:47:18;18.00;99.90
8715;DHT22;4394;51.208;8.904;2022-10-16T17:50:06;17.90;99.90
8715;DHT22;4394;51.208;8.904;2022-10-16T17:53:00;17.90;99.90
8715;DHT22;4394;51.208;8.904;2022-10-16T17:55:50;17.80;99.90
8715;DHT22;4394;51.208;8.904;2022-10-16T17:58:42;17.80;99.90
8715;DHT22;4394;51.208;8.904;2022-10-16T18:01:36;17.80;99.90
8715;DHT22;4394;51.208;8.904;2022-10-16T18:04:27;17.80;99.90
8715;DHT22;4394;51.208;8.904;2022-10-16T18:07:15;17.80;99.90
8715;DHT22;4394;51.208;8.904;2022-10-16T18:10:03;17.80;99.90
8715;DHT22;4394;51.208;8.904;2022-10-16T18:13:01;17.80;99.90
8715;DHT22;4394;51.208;8.904;2022-10-16T18:15:58;17.70;99.90
8715;DHT22;4394;51.208;8.904;2022-10-16T18:18:46;17.80;99.90
8715;DHT22;4394;51.208;8.904;2022-10-16T18:21:34;17.80;99.90
8715;DHT22;4394;51.208;8.904;2022-10-16T18:24:22;17.70;99.90
8715;DHT22;4394;51.208;8.904;2022-10-16T18:27:11;17.80;99.90
8715;DHT22;4394;51.208;8.904;2022-10-16T18:30:00;17.70;99.90
8715;DHT22;4394;51.208;8.904;2022-10-16T18:32:48;17.70;99.90
8715;DHT22;4394;51.208;8.904;2022-10-16T18:35:36;17.70;99.90
8715;DHT22;4394;51.208;8.904;2022-10-16T18:38:24;17.80;99.90
8715;DHT22;4394;51.208;8.904;2022-10-16T18:41:13;17.70;99.90